sensor_id;sensor_type;location;lat;lon;timestamp;temperature;humidity
75442;DHT22;64019;48.312;14.226;2023-04-06T00:00:50;2.20;99.90
75442;DHT22;64019;48.312;14.226;2023-04-06T00:03:17;2.30;99.90
75442;DHT22;64019;48.312;14.226;2023-04-06T00:05:43;2.20;99.90
75442;DHT22;64019;48.312;14.226;2023-04-06T00:08:08;2.10;99.90
75442;DHT22;64019;48.312;14.226;2023-04-06T00:10:34;2.10;99.90
75442;DHT22;64019;48.312;14.226;2023-04-06T00:13:00;2.00;99.90
75442;DHT22;64019;48.312;14.226;2023-04-06T00:15:26;2.00;99.90
75442;DHT22;64019;48.312;14.226;2023-04-06T00:17:52;1.90;99.90
75442;DHT22;64019;48.312;14.226;2023-04-06T00:20:18;1.90;99.90
75442;DHT22;64019;48.312;14.226;2023-04-06T00:22:44;1.90;99.90
75442;DHT22;64019;48.312;14.226;2023-04-06T00:25:10;1.90;99.90
75442;DHT22;64019;48.312;14.226;2023-04-06T00:27:37;1.90;99.90
75442;DHT22;64019;48.312;14.226;2023-04-06T00:30:04;1.80;99.90
75442;DHT22;64019;48.312;14.226;2023-04-06T00:32:30;1.70;99.90
75442;DHT22;64019;48.312;14.226;2023-04-06T00:34:56;1.70;99.90
75442;DHT22;64019;48.312;14.226;2023-04-06T00:37:22;1.60;99.90
75442;DHT22;64019;48.312;14.226;2023-04-06T00:39:48;1.50;99.90
75442;DHT22;64019;48.312;14.226;2023-04-06T00:42:14;1.50;99.90
75442;DHT22;64019;48.312;14.226;2023-04-06T00:44:42;1.50;99.90
75442;DHT22;64019;48.312;14.226;2023-04-06T00:47:08;1.40;99.90
75442;DHT22;64019;48.312;14.226;2023-04-06T00:49:35;1.40;99.90
75442;DHT22;64019;48.312;14.226;2023-04-06T00:52:01;1.30;99.90
75442;DHT22;64019;48.312;14.226;2023-04-06T00:54:28;1.10;99.90
75442;DHT22;64019;48.312;14.226;2023-04-06T00:56:53;1.10;99.90
75442;DHT22;64019;48.312;14.226;2023-04-06T00:59:20;1.10;99.90
75442;DHT22;64019;48.312;14.226;2023-04-06T01:01:46;1.00;99.90
75442;DHT22;64019;48.312;14.226;2023-04-06T01:04:11;1.00;99.90
75442;DHT22;64019;48.312;14.226;2023-04-06T01:06:37;1.00;99.90
75442;DHT22;64019;48.312;14.226;2023-04-06T01:09:03;0.90;99.90
75442;DHT22;64019;48.312;14.226;2023-04-06T01:11:28;0.80;99.90
75442;DHT22;64019;48.312;14.226;2023-04-06T01:13:54;0.80;99.90
75442;DHT22;64019;48.312;14.226;2023-04-06T01:16:20;0.70;99.90
75442;DHT22;64019;48.312;14.226;2023-04-06T01:18:46;0.60;99.90
75442;DHT22;64019;48.312;14.226;2023-04-06T01:21:11;0.50;99.90
75442;DHT22;64019;48.312;14.226;2023-04-06T01:23:44;0.60;99.90
75442;DHT22;64019;48.312;14.226;2023-04-06T01:26:12;0.50;99.90
75442;DHT22;64019;48.312;14.226;2023-04-06T01:28:37;0.50;99.90
75442;DHT22;64019;48.312;14.226;2023-04-06T01:31:04;0.30;99.90
75442;DHT22;64019;48.312;14.226;2023-04-06T01:33:30;0.30;99.90
75442;DHT22;64019;48.312;14.226;2023-04-06T01:35:56;0.30;99.90
75442;DHT22;64019;48.312;14.226;2023-04-06T01:38:21;0.30;99.90
75442;DHT22;64019;48.312;14.226;2023-04-06T01:40:47;0.20;99.90
75442;DHT22;64019;48.312;14.226;2023-04-06T01:43:13;0.20;99.90
75442;DHT22;64019;48.312;14.226;2023-04-06T01:45:38;0.20;99.90
75442;DHT22;64019;48.312;14.226;2023-04-06T01:48:05;0.10;99.90
75442;DHT22;64019;48.312;14.226;2023-04-06T01:50:30;0.00;99.90
75442;DHT22;64019;48.312;14.226;2023-04-06T01:52:56;0.00;99.90
75442;DHT22;64019;48.312;14.226;2023-04-06T01:55:22;0.10;99.90
75442;DHT22;64019;48.312;14.226;2023-04-06T01:57:48;0.10;99.90
75442;DHT22;64019;48.312;14.226;2023-04-06T02:00:14;0.10;99.90
75442;DHT22;64019;48.312;14.226;2023-04-06T02:02:40;0.10;99.90
75442;DHT22;64019;48.312;14.226;2023-04-06T02:05:06;0.10;99.90
75442;DHT22;64019;48.312;14.226;2023-04-06T02:07:31;0.10;99.90
75442;DHT22;64019;48.312;14.226;2023-04-06T02:09:57;0.00;99.90
75442;DHT22;64019;48.312;14.226;2023-04-06T02:12:23;0.00;99.90
75442;DHT22;64019;48.312;14.226;2023-04-06T02:14:49;-0.10;99.90
75442;DHT22;64019;48.312;14.226;2023-04-06T02:17:15;-0.20;99.90
75442;DHT22;64019;48.312;14.226;2023-04-06T02:19:40;-0.20;99.90
75442;DHT22;64019;48.312;14.226;2023-04-06T02:22:06;-0.20;99.90
75442;DHT22;64019;48.312;14.226;2023-04-06T02:24:32;-0.20;99.90
75442;DHT22;64019;48.312;14.226;2023-04-06T02:26:57;-0.20;99.90
75442;DHT22;64019;48.312;14.226;2023-04-06T02:29:23;-0.20;99.90
75442;DHT22;64019;48.312;14.226;2023-04-06T02:31:49;-0.30;99.90
75442;DHT22;64019;48.312;14.226;2023-04-06T02:34:14;-0.40;99.90
75442;DHT22;64019;48.312;14.226;2023-04-06T02:36:44;-0.40;99.90
75442;DHT22;64019;48.312;14.226;2023-04-06T02:39:11;-0.40;99.90
75442;DHT22;64019;48.312;14.226;2023-04-06T02:41:36;-0.30;99.90
75442;DHT22;64019;48.312;14.226;2023-04-06T02:44:03;-0.40;99.90
75442;DHT22;64019;48.312;14.226;2023-04-06T02:46:28;-0.40;99.90
75442;DHT22;64019;48.312;14.226;2023-04-06T02:48:54;-0.40;99.90
75442;DHT22;64019;48.312;14.226;2023-04-06T02:51:20;-0.50;99.90
75442;DHT22;64019;48.312;14.226;2023-04-06T02:53:46;-0.50;99.90
75442;DHT22;64019;48.312;14.226;2023-04-06T02:56:12;-0.50;99.90
75442;DHT22;64019;48.312;14.226;2023-04-06T02:58:37;-0.50;99.90
75442;DHT22;64019;48.312;14.226;2023-04-06T03:01:03;-0.50;99.90
75442;DHT22;64019;48.312;14.226;2023-04-06T03:03:29;-0.50;99.90
75442;DHT22;64019;48.312;14.226;2023-04-06T03:05:55;-0.50;99.90
75442;DHT22;64019;48.312;14.226;2023-04-06T03:08:24;-0.50;99.90
75442;DHT22;64019;48.312;14.226;2023-04-06T03:10:50;-0.50;99.90
75442;DHT22;64019;48.312;14.226;2023-04-06T03:13:16;-0.60;99.90
75442;DHT22;64019;48.312;14.226;2023-04-06T03:15:41;-0.60;99.90
75442;DHT22;64019;48.312;14.226;2023-04-06T03:18:07;-0.70;99.90
75442;DHT22;64019;48.312;14.226;2023-04-06T03:20:33;-0.70;99.90
75442;DHT22;64019;48.312;14.226;2023-04-06T03:22:58;-0.70;99.90
75442;DHT22;64019;48.312;14.226;2023-04-06T03:25:24;-0.70;99.90
75442;DHT22;64019;48.312;14.226;2023-04-06T03:27:50;-0.70;99.90
75442;DHT22;64019;48.312;14.226;2023-04-06T03:30:16;-0.70;99.90
75442;DHT22;64019;48.312;14.226;2023-04-06T03:32:43;-0.70;99.90
75442;DHT22;64019;48.312;14.226;2023-04-06T03:35:09;-0.80;99.90
75442;DHT22;64019;48.312;14.226;2023-04-06T03:37:35;-0.70;99.90
75442;DHT22;64019;48.312;14.226;2023-04-06T03:40:02;-0.70;99.90
75442;DHT22;64019;48.312;14.226;2023-04-06T03:42:28;-0.70;99.90
75442;DHT22;64019;48.312;14.226;2023-04-06T03:44:54;-0.70;99.90
75442;DHT22;64019;48.312;14.226;2023-04-06T03:47:20;-0.70;99.90
75442;DHT22;64019;48.312;14.226;2023-04-06T03:49:45;-0.70;99.90
75442;DHT22;64019;48.312;14.226;2023-04-06T03:52:11;-0.80;99.90
75442;DHT22;64019;48.312;14.226;2023-04-06T03:54:37;-0.80;99.90
75442;DHT22;64019;48.312;14.226;2023-04-06T03:57:03;-0.80;99.90
75442;DHT22;64019;48.312;14.226;2023-04-06T03:59:29;-0.90;99.90
75442;DHT22;64019;48.312;14.226;2023-04-06T04:01:54;-1.00;99.90
75442;DHT22;64019;48.312;14.226;2023-04-06T04:04:20;-1.10;99.90
75442;DHT22;64019;48.312;14.226;2023-04-06T04:06:46;-1.00;99.90
75442;DHT22;64019;48.312;14.226;2023-04-06T04:09:12;-1.00;99.90
75442;DHT22;64019;48.312;14.226;2023-04-06T04:11:37;-1.00;99.90
75442;DHT22;64019;48.312;14.226;2023-04-06T04:14:03;-1.00;99.90
75442;DHT22;64019;48.312;14.226;2023-04-06T04:16:29;-1.00;99.90
75442;DHT22;64019;48.312;14.226;2023-04-06T04:18:55;-1.00;99.90
75442;DHT22;64019;48.312;14.226;2023-04-06T04:21:20;-1.00;99.90
75442;DHT22;64019;48.312;14.226;2023-04-06T04:23:46;-1.10;99.90
75442;DHT22;64019;48.312;14.226;2023-04-06T04:26:12;-1.10;99.90
75442;DHT22;64019;48.312;14.226;2023-04-06T04:28:38;-1.10;99.90
75442;DHT22;64019;48.312;14.226;2023-04-06T04:31:03;-1.10;99.90
75442;DHT22;64019;48.312;14.226;2023-04-06T04:33:29;-1.10;99.90
75442;DHT22;64019;48.312;14.226;2023-04-06T04:35:55;-1.10;99.90
75442;DHT22;64019;48.312;14.226;2023-04-06T04:38:21;-1.00;99.90
75442;DHT22;64019;48.312;14.226;2023-04-06T04:40:47;-1.00;99.90
75442;DHT22;64019;48.312;14.226;2023-04-06T04:43:13;-1.10;99.90
75442;DHT22;64019;48.312;14.226;2023-04-06T04:45:39;-1.00;99.90
75442;DHT22;64019;48.312;14.226;2023-04-06T04:48:04;-1.00;99.90
75442;DHT22;64019;48.312;14.226;2023-04-06T04:50:31;-1.10;99.90
75442;DHT22;64019;48.312;14.226;2023-04-06T04:52:57;-1.10;99.90
75442;DHT22;64019;48.312;14.226;2023-04-06T04:55:23;-1.10;99.90
75442;DHT22;64019;48.312;14.226;2023-04-06T04:57:48;-1.10;99.90
75442;DHT22;64019;48.312;14.226;2023-04-06T05:00:14;-1.10;99.90
75442;DHT22;64019;48.312;14.226;2023-04-06T05:02:40;-1.00;99.90
75442;DHT22;64019;48.312;14.226;2023-04-06T05:05:06;-1.00;99.90
75442;DHT22;64019;48.312;14.226;2023-04-06T05:07:32;-0.90;99.90
75442;DHT22;64019;48.312;14.226;2023-04-06T05:09:59;-0.90;99.90
75442;DHT22;64019;48.312;14.226;2023-04-06T05:12:24;-0.90;99.90
75442;DHT22;64019;48.312;14.226;2023-04-06T05:14:53;-0.80;99.90
75442;DHT22;64019;48.312;14.226;2023-04-06T05:17:19;-0.70;99.90
75442;DHT22;64019;48.312;14.226;2023-04-06T05:19:45;-0.60;99.90
75442;DHT22;64019;48.312;14.226;2023-04-06T05:22:11;-0.40;99.90
75442;DHT22;64019;48.312;14.226;2023-04-06T05:24:36;-0.30;99.90
75442;DHT22;64019;48.312;14.226;2023-04-06T05:27:02;-0.10;99.90
75442;DHT22;64019;48.312;14.226;2023-04-06T05:29:29;0.00;99.90
75442;DHT22;64019;48.312;14.226;2023-04-06T05:31:54;0.20;99.90
75442;DHT22;64019;48.312;14.226;2023-04-06T05:34:20;0.40;99.90
75442;DHT22;64019;48.312;14.226;2023-04-06T05:36:46;0.60;99.90
75442;DHT22;64019;48.312;14.226;2023-04-06T05:39:12;0.80;99.90
75442;DHT22;64019;48.312;14.226;2023-04-06T05:41:38;0.90;99.90
75442;DHT22;64019;48.312;14.226;2023-04-06T05:44:04;1.00;99.90
75442;DHT22;64019;48.312;14.226;2023-04-06T05:46:30;1.20;99.90
75442;DHT22;64019;48.312;14.226;2023-04-06T05:48:55;1.30;99.90
75442;DHT22;64019;48.312;14.226;2023-04-06T05:51:21;1.40;99.90
75442;DHT22;64019;48.312;14.226;2023-04-06T05:53:47;1.50;99.90
75442;DHT22;64019;48.312;14.226;2023-04-06T05:56:12;1.60;99.90
75442;DHT22;64019;48.312;14.226;2023-04-06T05:58:38;1.60;99.90
75442;DHT22;64019;48.312;14.226;2023-04-06T06:01:04;1.70;99.90
75442;DHT22;64019;48.312;14.226;2023-04-06T06:03:30;1.80;99.90
75442;DHT22;64019;48.312;14.226;2023-04-06T06:06:03;1.70;99.90
75442;DHT22;64019;48.312;14.226;2023-04-06T06:08:29;1.80;99.90
75442;DHT22;64019;48.312;14.226;2023-04-06T06:10:55;1.90;99.90
75442;DHT22;64019;48.312;14.226;2023-04-06T06:13:22;2.00;99.90
75442;DHT22;64019;48.312;14.226;2023-04-06T06:15:49;1.90;99.90
75442;DHT22;64019;48.312;14.226;2023-04-06T06:18:15;2.00;99.90
75442;DHT22;64019;48.312;14.226;2023-04-06T06:20:41;2.10;99.90
75442;DHT22;64019;48.312;14.226;2023-04-06T06:23:06;2.20;99.90
75442;DHT22;64019;48.312;14.226;2023-04-06T06:25:32;2.30;99.90
75442;DHT22;64019;48.312;14.226;2023-04-06T06:27:58;2.40;99.90
75442;DHT22;64019;48.312;14.226;2023-04-06T06:30:24;2.40;99.90
75442;DHT22;64019;48.312;14.226;2023-04-06T06:32:50;2.50;99.90
75442;DHT22;64019;48.312;14.226;2023-04-06T06:35:16;2.50;99.90
75442;DHT22;64019;48.312;14.226;2023-04-06T06:37:42;2.60;99.90
75442;DHT22;64019;48.312;14.226;2023-04-06T06:40:09;2.60;99.90
75442;DHT22;64019;48.312;14.226;2023-04-06T06:42:36;2.60;99.90
75442;DHT22;64019;48.312;14.226;2023-04-06T06:45:02;2.80;99.90
75442;DHT22;64019;48.312;14.226;2023-04-06T06:47:28;2.90;99.90
75442;DHT22;64019;48.312;14.226;2023-04-06T06:49:53;2.90;99.90
75442;DHT22;64019;48.312;14.226;2023-04-06T06:52:19;2.80;99.90
75442;DHT22;64019;48.312;14.226;2023-04-06T06:54:45;3.00;99.90
75442;DHT22;64019;48.312;14.226;2023-04-06T06:57:10;3.00;99.90
75442;DHT22;64019;48.312;14.226;2023-04-06T06:59:36;3.10;99.90
75442;DHT22;64019;48.312;14.226;2023-04-06T07:02:02;3.20;99.90
75442;DHT22;64019;48.312;14.226;2023-04-06T07:04:27;3.40;99.90
75442;DHT22;64019;48.312;14.226;2023-04-06T07:06:53;3.50;99.90
75442;DHT22;64019;48.312;14.226;2023-04-06T07:09:19;3.50;99.90
75442;DHT22;64019;48.312;14.226;2023-04-06T07:11:44;3.30;99.90
75442;DHT22;64019;48.312;14.226;2023-04-06T07:14:10;3.10;99.90
75442;DHT22;64019;48.312;14.226;2023-04-06T07:16:37;3.10;99.90
75442;DHT22;64019;48.312;14.226;2023-04-06T07:19:03;3.10;99.90
75442;DHT22;64019;48.312;14.226;2023-04-06T07:21:28;3.10;99.90
75442;DHT22;64019;48.312;14.226;2023-04-06T07:23:54;3.10;99.90
75442;DHT22;64019;48.312;14.226;2023-04-06T07:26:20;3.10;99.90
75442;DHT22;64019;48.312;14.226;2023-04-06T07:28:46;3.40;99.90
75442;DHT22;64019;48.312;14.226;2023-04-06T07:31:12;3.50;99.90
75442;DHT22;64019;48.312;14.226;2023-04-06T07:33:37;3.70;99.90
75442;DHT22;64019;48.312;14.226;2023-04-06T07:36:03;3.60;99.90
75442;DHT22;64019;48.312;14.226;2023-04-06T07:38:30;3.60;99.90
75442;DHT22;64019;48.312;14.226;2023-04-06T07:40:56;3.70;99.90
75442;DHT22;64019;48.312;14.226;2023-04-06T07:43:21;3.70;99.90
75442;DHT22;64019;48.312;14.226;2023-04-06T07:45:47;3.70;99.90
75442;DHT22;64019;48.312;14.226;2023-04-06T07:48:13;3.90;99.90
75442;DHT22;64019;48.312;14.226;2023-04-06T07:50:38;4.20;99.90
75442;DHT22;64019;48.312;14.226;2023-04-06T07:53:04;4.30;99.90
75442;DHT22;64019;48.312;14.226;2023-04-06T07:55:30;4.20;99.90
75442;DHT22;64019;48.312;14.226;2023-04-06T07:57:56;4.30;99.90
75442;DHT22;64019;48.312;14.226;2023-04-06T08:00:22;4.40;99.90
75442;DHT22;64019;48.312;14.226;2023-04-06T08:02:47;4.60;99.90
75442;DHT22;64019;48.312;14.226;2023-04-06T08:05:13;4.70;99.90
75442;DHT22;64019;48.312;14.226;2023-04-06T08:07:39;4.80;99.90
75442;DHT22;64019;48.312;14.226;2023-04-06T08:10:05;4.60;99.90
75442;DHT22;64019;48.312;14.226;2023-04-06T08:12:32;4.80;99.90
75442;DHT22;64019;48.312;14.226;2023-04-06T08:14:58;4.80;99.90
75442;DHT22;64019;48.312;14.226;2023-04-06T08:17:24;4.90;99.90
75442;DHT22;64019;48.312;14.226;2023-04-06T08:19:51;5.10;99.90
75442;DHT22;64019;48.312;14.226;2023-04-06T08:22:16;5.20;99.90
75442;DHT22;64019;48.312;14.226;2023-04-06T08:24:42;5.20;99.90
75442;DHT22;64019;48.312;14.226;2023-04-06T08:27:08;5.00;99.90
75442;DHT22;64019;48.312;14.226;2023-04-06T08:29:33;5.10;99.90
75442;DHT22;64019;48.312;14.226;2023-04-06T08:31:59;5.40;99.90
75442;DHT22;64019;48.312;14.226;2023-04-06T08:34:25;5.60;99.90
75442;DHT22;64019;48.312;14.226;2023-04-06T08:36:51;5.70;99.90
75442;DHT22;64019;48.312;14.226;2023-04-06T08:39:16;5.70;99.90
75442;DHT22;64019;48.312;14.226;2023-04-06T08:41:42;5.50;99.90
75442;DHT22;64019;48.312;14.226;2023-04-06T08:44:09;5.40;99.90
75442;DHT22;64019;48.312;14.226;2023-04-06T08:46:35;5.40;99.90
75442;DHT22;64019;48.312;14.226;2023-04-06T08:49:02;5.50;99.90
75442;DHT22;64019;48.312;14.226;2023-04-06T08:51:29;5.40;99.90
75442;DHT22;64019;48.312;14.226;2023-04-06T08:53:59;5.60;99.90
75442;DHT22;64019;48.312;14.226;2023-04-06T08:56:26;5.50;99.90
75442;DHT22;64019;48.312;14.226;2023-04-06T08:58:53;5.60;99.90
75442;DHT22;64019;48.312;14.226;2023-04-06T09:01:25;5.50;99.90
75442;DHT22;64019;48.312;14.226;2023-04-06T09:03:51;5.50;99.90
75442;DHT22;64019;48.312;14.226;2023-04-06T09:06:19;5.50;99.90
75442;DHT22;64019;48.312;14.226;2023-04-06T09:08:44;5.50;99.90
75442;DHT22;64019;48.312;14.226;2023-04-06T09:11:10;5.50;99.90
75442;DHT22;64019;48.312;14.226;2023-04-06T09:13:53;5.60;99.90
75442;DHT22;64019;48.312;14.226;2023-04-06T09:16:20;5.70;99.90
75442;DHT22;64019;48.312;14.226;2023-04-06T09:18:46;5.80;99.90
75442;DHT22;64019;48.312;14.226;2023-04-06T09:21:21;5.80;99.90
75442;DHT22;64019;48.312;14.226;2023-04-06T09:24:02;5.80;99.90
75442;DHT22;64019;48.312;14.226;2023-04-06T09:26:28;5.80;99.90
75442;DHT22;64019;48.312;14.226;2023-04-06T09:28:55;5.90;99.90
75442;DHT22;64019;48.312;14.226;2023-04-06T09:31:26;6.00;99.90
75442;DHT22;64019;48.312;14.226;2023-04-06T09:33:52;6.00;99.90
75442;DHT22;64019;48.312;14.226;2023-04-06T09:36:19;6.20;99.90
75442;DHT22;64019;48.312;14.226;2023-04-06T09:38:54;6.30;99.90
75442;DHT22;64019;48.312;14.226;2023-04-06T09:41:32;6.40;99.90
75442;DHT22;64019;48.312;14.226;2023-04-06T09:44:03;6.40;99.90
75442;DHT22;64019;48.312;14.226;2023-04-06T09:46:36;6.40;99.90
75442;DHT22;64019;48.312;14.226;2023-04-06T09:49:02;6.50;99.90
75442;DHT22;64019;48.312;14.226;2023-04-06T09:51:55;6.50;99.90
75442;DHT22;64019;48.312;14.226;2023-04-06T09:54:22;6.60;99.90
75442;DHT22;64019;48.312;14.226;2023-04-06T09:57:11;6.60;99.90
75442;DHT22;64019;48.312;14.226;2023-04-06T10:00:01;6.70;99.90
75442;DHT22;64019;48.312;14.226;2023-04-06T10:05:52;6.70;99.90
75442;DHT22;64019;48.312;14.226;2023-04-06T10:08:21;6.70;99.90
75442;DHT22;64019;48.312;14.226;2023-04-06T10:10:51;6.80;99.90
75442;DHT22;64019;48.312;14.226;2023-04-06T10:13:17;6.80;99.90
75442;DHT22;64019;48.312;14.226;2023-04-06T10:15:44;6.80;99.90
75442;DHT22;64019;48.312;14.226;2023-04-06T10:18:10;6.80;99.90
75442;DHT22;64019;48.312;14.226;2023-04-06T10:20:49;6.80;99.90
75442;DHT22;64019;48.312;14.226;2023-04-06T10:26:13;7.10;99.90
75442;DHT22;64019;48.312;14.226;2023-04-06T10:28:41;7.20;99.90
75442;DHT22;64019;48.312;14.226;2023-04-06T10:31:07;7.30;99.90
75442;DHT22;64019;48.312;14.226;2023-04-06T10:33:33;7.20;99.90
75442;DHT22;64019;48.312;14.226;2023-04-06T10:36:13;7.30;99.90
75442;DHT22;64019;48.312;14.226;2023-04-06T10:38:40;7.20;99.90
75442;DHT22;64019;48.312;14.226;2023-04-06T10:41:07;7.40;99.90
75442;DHT22;64019;48.312;14.226;2023-04-06T10:43:37;7.50;99.90
75442;DHT22;64019;48.312;14.226;2023-04-06T10:46:05;7.50;99.90
75442;DHT22;64019;48.312;14.226;2023-04-06T10:48:44;7.70;99.90
75442;DHT22;64019;48.312;14.226;2023-04-06T10:51:18;7.60;99.90
75442;DHT22;64019;48.312;14.226;2023-04-06T10:53:48;7.60;99.90
75442;DHT22;64019;48.312;14.226;2023-04-06T10:56:18;7.60;99.90
75442;DHT22;64019;48.312;14.226;2023-04-06T10:58:48;7.80;99.90
75442;DHT22;64019;48.312;14.226;2023-04-06T11:01:17;7.80;99.90
75442;DHT22;64019;48.312;14.226;2023-04-06T11:03:47;7.70;99.90
75442;DHT22;64019;48.312;14.226;2023-04-06T11:06:24;7.90;99.90
75442;DHT22;64019;48.312;14.226;2023-04-06T11:08:53;7.90;99.90
75442;DHT22;64019;48.312;14.226;2023-04-06T11:11:21;7.90;99.90
75442;DHT22;64019;48.312;14.226;2023-04-06T11:13:49;8.00;99.90
75442;DHT22;64019;48.312;14.226;2023-04-06T11:16:17;8.10;99.90
75442;DHT22;64019;48.312;14.226;2023-04-06T11:21:15;8.20;99.90
75442;DHT22;64019;48.312;14.226;2023-04-06T11:23:42;8.20;99.90
75442;DHT22;64019;48.312;14.226;2023-04-06T11:26:14;8.20;99.90
75442;DHT22;64019;48.312;14.226;2023-04-06T11:28:43;8.30;99.90
75442;DHT22;64019;48.312;14.226;2023-04-06T11:31:12;8.40;99.90
75442;DHT22;64019;48.312;14.226;2023-04-06T11:33:38;8.40;99.90
75442;DHT22;64019;48.312;14.226;2023-04-06T11:36:05;8.50;99.90
75442;DHT22;64019;48.312;14.226;2023-04-06T11:45:08;8.80;99.80
75442;DHT22;64019;48.312;14.226;2023-04-06T11:47:36;8.70;99.50
75442;DHT22;64019;48.312;14.226;2023-04-06T11:50:09;8.60;99.90
75442;DHT22;64019;48.312;14.226;2023-04-06T11:52:35;8.80;99.90
75442;DHT22;64019;48.312;14.226;2023-04-06T11:55:14;8.90;99.90
75442;DHT22;64019;48.312;14.226;2023-04-06T11:57:40;9.00;99.80
75442;DHT22;64019;48.312;14.226;2023-04-06T12:00:08;9.00;99.80
75442;DHT22;64019;48.312;14.226;2023-04-06T12:02:35;9.20;99.70
75442;DHT22;64019;48.312;14.226;2023-04-06T12:05:01;9.30;98.50
75442;DHT22;64019;48.312;14.226;2023-04-06T12:07:29;9.30;98.00
75442;DHT22;64019;48.312;14.226;2023-04-06T12:09:55;9.30;98.60
75442;DHT22;64019;48.312;14.226;2023-04-06T12:12:20;9.20;98.60
75442;DHT22;64019;48.312;14.226;2023-04-06T12:14:46;9.20;99.20
75442;DHT22;64019;48.312;14.226;2023-04-06T12:17:12;9.20;98.40
75442;DHT22;64019;48.312;14.226;2023-04-06T12:19:37;9.20;98.50
75442;DHT22;64019;48.312;14.226;2023-04-06T12:22:03;9.20;99.10
75442;DHT22;64019;48.312;14.226;2023-04-06T12:24:29;9.30;98.10
75442;DHT22;64019;48.312;14.226;2023-04-06T12:26:55;9.40;98.40
75442;DHT22;64019;48.312;14.226;2023-04-06T12:29:20;9.40;98.20
75442;DHT22;64019;48.312;14.226;2023-04-06T12:31:46;9.40;99.30
75442;DHT22;64019;48.312;14.226;2023-04-06T12:34:12;9.50;98.90
75442;DHT22;64019;48.312;14.226;2023-04-06T12:36:38;9.40;97.20
75442;DHT22;64019;48.312;14.226;2023-04-06T12:39:04;9.40;98.00
75442;DHT22;64019;48.312;14.226;2023-04-06T12:41:30;9.60;97.40
75442;DHT22;64019;48.312;14.226;2023-04-06T12:43:57;9.70;99.20
75442;DHT22;64019;48.312;14.226;2023-04-06T12:46:24;9.70;98.30
75442;DHT22;64019;48.312;14.226;2023-04-06T12:48:51;9.80;96.90
75442;DHT22;64019;48.312;14.226;2023-04-06T12:51:21;9.80;97.90
75442;DHT22;64019;48.312;14.226;2023-04-06T12:53:47;9.90;97.30
75442;DHT22;64019;48.312;14.226;2023-04-06T12:56:14;9.70;96.30
75442;DHT22;64019;48.312;14.226;2023-04-06T12:58:41;9.80;97.60
75442;DHT22;64019;48.312;14.226;2023-04-06T13:01:07;9.80;96.60
75442;DHT22;64019;48.312;14.226;2023-04-06T13:03:33;9.70;96.70
75442;DHT22;64019;48.312;14.226;2023-04-06T13:06:00;9.80;96.90
75442;DHT22;64019;48.312;14.226;2023-04-06T13:08:26;9.90;95.90
75442;DHT22;64019;48.312;14.226;2023-04-06T13:10:53;10.10;95.70
75442;DHT22;64019;48.312;14.226;2023-04-06T13:13:28;10.40;96.30
75442;DHT22;64019;48.312;14.226;2023-04-06T13:16:08;10.40;95.00
75442;DHT22;64019;48.312;14.226;2023-04-06T13:18:34;10.50;94.70
75442;DHT22;64019;48.312;14.226;2023-04-06T13:21:00;10.60;94.10
75442;DHT22;64019;48.312;14.226;2023-04-06T13:23:26;10.50;94.30
75442;DHT22;64019;48.312;14.226;2023-04-06T13:26:10;10.50;94.90
75442;DHT22;64019;48.312;14.226;2023-04-06T13:28:36;10.40;94.80
75442;DHT22;64019;48.312;14.226;2023-04-06T13:31:04;10.50;93.60
75442;DHT22;64019;48.312;14.226;2023-04-06T13:33:30;10.50;93.10
75442;DHT22;64019;48.312;14.226;2023-04-06T13:35:57;10.60;92.10
75442;DHT22;64019;48.312;14.226;2023-04-06T13:38:22;10.70;92.10
75442;DHT22;64019;48.312;14.226;2023-04-06T13:40:51;10.80;91.00
75442;DHT22;64019;48.312;14.226;2023-04-06T13:43:17;10.70;90.60
75442;DHT22;64019;48.312;14.226;2023-04-06T13:45:53;10.70;90.90
75442;DHT22;64019;48.312;14.226;2023-04-06T13:48:20;10.70;90.60
75442;DHT22;64019;48.312;14.226;2023-04-06T13:50:47;10.80;90.70
75442;DHT22;64019;48.312;14.226;2023-04-06T13:53:13;10.80;90.70
75442;DHT22;64019;48.312;14.226;2023-04-06T13:55:38;10.90;90.60
75442;DHT22;64019;48.312;14.226;2023-04-06T13:58:04;10.80;88.00
75442;DHT22;64019;48.312;14.226;2023-04-06T14:00:30;10.60;89.50
75442;DHT22;64019;48.312;14.226;2023-04-06T14:02:55;10.70;89.20
75442;DHT22;64019;48.312;14.226;2023-04-06T14:05:21;10.80;89.00
75442;DHT22;64019;48.312;14.226;2023-04-06T14:07:49;10.90;88.20
75442;DHT22;64019;48.312;14.226;2023-04-06T14:10:15;11.00;89.90
75442;DHT22;64019;48.312;14.226;2023-04-06T14:12:41;11.00;88.50
75442;DHT22;64019;48.312;14.226;2023-04-06T14:15:08;11.00;86.70
75442;DHT22;64019;48.312;14.226;2023-04-06T14:17:34;10.90;87.50
75442;DHT22;64019;48.312;14.226;2023-04-06T14:20:00;10.70;86.20
75442;DHT22;64019;48.312;14.226;2023-04-06T14:22:25;10.70;85.80
75442;DHT22;64019;48.312;14.226;2023-04-06T14:24:51;10.80;86.60
75442;DHT22;64019;48.312;14.226;2023-04-06T14:27:17;10.80;84.80
75442;DHT22;64019;48.312;14.226;2023-04-06T14:29:42;10.70;84.30
75442;DHT22;64019;48.312;14.226;2023-04-06T14:32:08;10.70;85.50
75442;DHT22;64019;48.312;14.226;2023-04-06T14:34:37;10.70;86.00
75442;DHT22;64019;48.312;14.226;2023-04-06T14:37:02;10.80;87.50
75442;DHT22;64019;48.312;14.226;2023-04-06T14:39:28;11.00;86.00
75442;DHT22;64019;48.312;14.226;2023-04-06T14:41:53;10.80;84.60
75442;DHT22;64019;48.312;14.226;2023-04-06T14:44:20;10.70;85.20
75442;DHT22;64019;48.312;14.226;2023-04-06T14:46:46;10.60;86.60
75442;DHT22;64019;48.312;14.226;2023-04-06T14:49:11;10.70;86.80
75442;DHT22;64019;48.312;14.226;2023-04-06T14:51:37;10.90;87.70
75442;DHT22;64019;48.312;14.226;2023-04-06T14:54:04;10.80;84.50
75442;DHT22;64019;48.312;14.226;2023-04-06T14:56:30;10.90;85.60
75442;DHT22;64019;48.312;14.226;2023-04-06T14:58:58;10.80;85.20
75442;DHT22;64019;48.312;14.226;2023-04-06T15:01:23;10.70;83.90
75442;DHT22;64019;48.312;14.226;2023-04-06T15:03:49;10.60;83.60
75442;DHT22;64019;48.312;14.226;2023-04-06T15:06:15;10.60;83.60
75442;DHT22;64019;48.312;14.226;2023-04-06T15:08:44;10.70;84.50
75442;DHT22;64019;48.312;14.226;2023-04-06T15:11:11;10.90;84.10
75442;DHT22;64019;48.312;14.226;2023-04-06T15:13:38;10.80;81.90
75442;DHT22;64019;48.312;14.226;2023-04-06T15:16:04;10.80;83.00
75442;DHT22;64019;48.312;14.226;2023-04-06T15:18:30;10.70;82.30
75442;DHT22;64019;48.312;14.226;2023-04-06T15:20:56;10.60;82.60
75442;DHT22;64019;48.312;14.226;2023-04-06T15:23:21;10.60;81.80
75442;DHT22;64019;48.312;14.226;2023-04-06T15:25:47;10.50;81.80
75442;DHT22;64019;48.312;14.226;2023-04-06T15:28:13;10.50;81.10
75442;DHT22;64019;48.312;14.226;2023-04-06T15:30:39;10.50;81.70
75442;DHT22;64019;48.312;14.226;2023-04-06T15:33:07;10.50;82.50
75442;DHT22;64019;48.312;14.226;2023-04-06T15:35:33;10.50;82.80
75442;DHT22;64019;48.312;14.226;2023-04-06T15:38:07;10.50;81.90